Straumvik — LEYJ — position and weather

sailwx.info

Track history (hours):
 
Tides and Currents Weather Stations Pressure Air Temp Water Temp Dewpoint Dewpoint Depression Visibility Wind Speed Wind Dir Waves Ship Positions

Straumvik

Last reported at 2016-Feb-09 08:33 UTC. Time now 2016-Feb-12 18:10 UTC.
Position N 59°54' E 005°31'.

Length 50 m; draft 5 m.

Type: Ship. MMSI: 258260000.

Date/timePositionNaut miles runAvg speedWind from/ knotsBaromVisibWave heightAir tempDewpointWater temp
2016-Feb-09 08:33N 59°54' E 005°31'8 8.4
2016-Feb-09 07:33N 59°46' E 005°33'9 8.5
2016-Feb-09 06:33N 59°40' E 005°21'8 8.3
2016-Feb-09 05:33N 59°32' E 005°14'16 6.4
2016-Feb-09 03:04N 59°17' E 005°20'4 7.8
2016-Feb-09 02:33N 59°13' E 005°21'8 7.6
2016-Feb-09 01:33N 59°05' E 005°21'8 8.2
2016-Feb-09 00:33N 58°57' E 005°21'8 7.6
2016-Feb-08 23:33N 58°49' E 005°23'7 7.3
2016-Feb-08 22:33N 58°43' E 005°28'7 7.3
2016-Feb-08 21:33N 58°36' E 005°34'8 7.8
2016-Feb-08 20:33N 58°29' E 005°42'8 7.5
2016-Feb-08 19:33N 58°24' E 005°52'7 7.2
2016-Feb-08 18:33N 58°20' E 006°04'6 6.0
2016-Feb-08 17:33N 58°19' E 006°16'0 0.3
2016-Feb-08 16:33N 58°20' E 006°15'0 0.0
2016-Feb-08 15:31N 58°20' E 006°15'0 0.0
2016-Feb-08 14:31N 58°20' E 006°15'0 0.0
2016-Feb-08 13:32N 58°20' E 006°15'0 0.0
2016-Feb-08 12:26N 58°20' E 006°15'0 0.0
2016-Feb-08 11:33N 58°20' E 006°15'0 0.0
2016-Feb-08 10:26N 58°20' E 006°15'6 6.2
2016-Feb-08 09:33N 58°14' E 006°17'8 8.5
2016-Feb-08 08:33N 58°08' E 006°27'7 7.2
2016-Feb-08 07:33N 58°02' E 006°36'7 6.9
2016-Feb-08 06:33N 57°59' E 006°47'7 6.6
2016-Feb-08 05:33N 57°55' E 006°57'3 2.9
2016-Feb-08 04:31N 57°54' E 007°03'3 3.1
2016-Feb-08 03:33N 57°54' E 007°09'5 2.7
2016-Feb-08 01:32N 57°54' E 007°19'2 1.7
2016-Feb-08 00:15N 57°55' E 007°23'1 1.5
2016-Feb-07 23:34N 57°55' E 007°24'5 2.3
2016-Feb-07 21:33N 57°56' E 007°33'22 3.6
2016-Feb-07 15:16N 58°02' E 008°14'3 4.0
2016-Feb-07 14:33N 58°03' E 008°19'3 3.3
2016-Feb-07 13:33N 58°05' E 008°24'2 2.5
2016-Feb-07 12:33N 58°07' E 008°27'2 1.8
2016-Feb-07 11:33N 58°09' E 008°27'2 1.5
2016-Feb-07 10:33N 58°10' E 008°28'2 2.2
2016-Feb-07 09:33N 58°11' E 008°32'3 2.5
2016-Feb-07 08:33N 58°13' E 008°35'3 2.6
2016-Feb-07 07:33N 58°15' E 008°39'3 2.8
2016-Feb-07 06:33N 58°16' E 008°44'3 3.0
2016-Feb-07 05:33N 58°18' E 008°49'3 2.9
2016-Feb-07 04:33N 58°19' E 008°53'3 2.9
2016-Feb-07 03:33N 58°21' E 008°58'58 2.6
2016-Feb-06 05:28N 58°58' E 010°25'2 2.7
2016-Feb-06 04:33N 58°59' E 010°29'4 3.6
2016-Feb-06 03:33N 59°01' E 010°33'5 5.2
2016-Feb-06 02:33N 59°06' E 010°37'7 7.4
2016-Feb-06 01:33N 59°14' E 010°37'8 8.4
2016-Feb-06 00:33N 59°22' E 010°34'8 7.7
2016-Feb-05 23:33N 59°28' E 010°26'2 1.8
2016-Feb-05 22:33N 59°29' E 010°23'0 0.0
2016-Feb-05 21:33N 59°29' E 010°23'0 0.0
2016-Feb-05 20:33N 59°29' E 010°23'0 0.0
2016-Feb-05 19:33N 59°29' E 010°23'0 0.0
2016-Feb-05 18:33N 59°29' E 010°23'2 1.9
2016-Feb-05 17:33N 59°28' E 010°26'7 6.9
2016-Feb-05 16:33N 59°23' E 010°35'7 7.4
2016-Feb-05 15:33N 59°16' E 010°38'7 7.3
2016-Feb-05 14:33N 59°09' E 010°39'8 7.6
2016-Feb-05 13:33N 59°01' E 010°35'67 6.7
2016-Feb-05 03:33N 58°19' E 008°56'5 5.0
2016-Feb-05 02:30N 58°16' E 008°48'5 5.7
2016-Feb-05 01:33N 58°12' E 008°40'6 5.8
2016-Feb-05 00:33N 58°09' E 008°31'6 6.4
2016-Feb-04 23:33N 58°05' E 008°22'41 6.8
2016-Feb-04 17:33N 57°56' E 007°07'7 7.4
2016-Feb-04 16:33N 57°59' E 006°54'8 7.8
2016-Feb-04 15:33N 58°02' E 006°40'8 7.7
2016-Feb-04 14:33N 58°06' E 006°28'7 7.2
2016-Feb-04 13:33N 58°10' E 006°18'7 7.1
2016-Feb-04 12:33N 58°15' E 006°07'10 8.3
2016-Feb-04 11:23N 58°22' E 005°54'6 7.7
2016-Feb-04 10:33N 58°26' E 005°45'8 7.8
2016-Feb-04 09:33N 58°32' E 005°36'7 7.2
2016-Feb-04 08:33N 58°39' E 005°30'8 7.6
2016-Feb-04 07:33N 58°46' E 005°25'7 6.7
2016-Feb-04 06:33N 58°52' E 005°31'8 7.9
2016-Feb-04 05:33N 58°60' E 005°33'7 7.3
2016-Feb-04 04:33N 59°07' E 005°28'7 6.6
2016-Feb-04 03:33N 59°12' E 005°20'24 5.8
2016-Feb-03 23:30N 59°36' E 005°16'8 8.4
2016-Feb-03 22:33N 59°42' E 005°26'8 7.7
2016-Feb-03 21:32N 59°49' E 005°33'  
2016-Jan-31 22:33N 59°56' E 005°29'5 4.8
2016-Jan-31 21:33N 59°51' E 005°33'5 5.0
2016-Jan-31 20:33N 59°46' E 005°33'5 5.5
2016-Jan-31 19:33N 59°42' E 005°26'5 5.4
2016-Jan-31 18:33N 59°38' E 005°19'7 5.5
2016-Jan-31 17:20N 59°32' E 005°13'17 6.1
2016-Jan-31 14:28N 59°15' E 005°21'6 6.7
2016-Jan-31 13:33N 59°11' E 005°31'6 6.1
2016-Jan-31 12:31N 59°09' E 005°42'7 7.0
2016-Jan-31 11:33N 59°04' E 005°51'7 7.2
2016-Jan-31 10:33N 58°58' E 005°57'6 0.4
2016-Jan-30 20:30N 58°53' E 006°05'8 8.2
2016-Jan-30 19:33N 58°59' E 005°54'7 7.0
2016-Jan-30 18:33N 59°06' E 005°52'7 6.0
2016-Jan-30 17:24N 59°12' E 005°48'7 8.1
2016-Jan-30 16:33N 59°15' E 005°36'8 7.7
2016-Jan-30 15:32N 59°16' E 005°21'15 6.9
2016-Jan-30 13:18N 59°31' E 005°12'5 4.5
2016-Jan-30 12:10N 59°36' E 005°16'4 6.9
2016-Jan-30 11:32N 59°39' E 005°20'7 6.7
2016-Jan-30 10:33N 59°44' E 005°29'7 7.0
2016-Jan-30 09:33N 59°51' E 005°33'  
Track history (hours):
 
Tides and Currents Weather Stations Pressure Air Temp Water Temp Dewpoint Dewpoint Depression Visibility Wind Speed Wind Dir Waves Ship Positions

Straumvik

Last reported at 2016-Feb-09 08:33 UTC. Time now 2016-Feb-12 18:10 UTC.
Position N 59°54' E 005°31'.

Length 50 m; draft 5 m.

Type: Ship. MMSI: 258260000.

Date/timePositionNaut miles runAvg speedWind from/ knotsBaromVisibWave heightAir tempDewpointWater temp
2016-Feb-09 08:33N 59°54' E 005°31'8 8.4
2016-Feb-09 07:33N 59°46' E 005°33'9 8.5
2016-Feb-09 06:33N 59°40' E 005°21'8 8.3
2016-Feb-09 05:33N 59°32' E 005°14'16 6.4
2016-Feb-09 03:04N 59°17' E 005°20'4 7.8
2016-Feb-09 02:33N 59°13' E 005°21'8 7.6
2016-Feb-09 01:33N 59°05' E 005°21'8 8.2
2016-Feb-09 00:33N 58°57' E 005°21'8 7.6
2016-Feb-08 23:33N 58°49' E 005°23'7 7.3
2016-Feb-08 22:33N 58°43' E 005°28'7 7.3
2016-Feb-08 21:33N 58°36' E 005°34'8 7.8
2016-Feb-08 20:33N 58°29' E 005°42'8 7.5
2016-Feb-08 19:33N 58°24' E 005°52'7 7.2
2016-Feb-08 18:33N 58°20' E 006°04'6 6.0
2016-Feb-08 17:33N 58°19' E 006°16'0 0.3
2016-Feb-08 16:33N 58°20' E 006°15'0 0.0
2016-Feb-08 15:31N 58°20' E 006°15'0 0.0
2016-Feb-08 14:31N 58°20' E 006°15'0 0.0
2016-Feb-08 13:32N 58°20' E 006°15'0 0.0
2016-Feb-08 12:26N 58°20' E 006°15'0 0.0
2016-Feb-08 11:33N 58°20' E 006°15'0 0.0
2016-Feb-08 10:26N 58°20' E 006°15'6 6.2
2016-Feb-08 09:33N 58°14' E 006°17'8 8.5
2016-Feb-08 08:33N 58°08' E 006°27'7 7.2
2016-Feb-08 07:33N 58°02' E 006°36'7 6.9
2016-Feb-08 06:33N 57°59' E 006°47'7 6.6
2016-Feb-08 05:33N 57°55' E 006°57'3 2.9
2016-Feb-08 04:31N 57°54' E 007°03'3 3.1
2016-Feb-08 03:33N 57°54' E 007°09'5 2.7
2016-Feb-08 01:32N 57°54' E 007°19'2 1.7
2016-Feb-08 00:15N 57°55' E 007°23'1 1.5
2016-Feb-07 23:34N 57°55' E 007°24'5 2.3
2016-Feb-07 21:33N 57°56' E 007°33'22 3.6
2016-Feb-07 15:16N 58°02' E 008°14'3 4.0
2016-Feb-07 14:33N 58°03' E 008°19'3 3.3
2016-Feb-07 13:33N 58°05' E 008°24'2 2.5
2016-Feb-07 12:33N 58°07' E 008°27'2 1.8
2016-Feb-07 11:33N 58°09' E 008°27'2 1.5
2016-Feb-07 10:33N 58°10' E 008°28'2 2.2
2016-Feb-07 09:33N 58°11' E 008°32'3 2.5
2016-Feb-07 08:33N 58°13' E 008°35'3 2.6
2016-Feb-07 07:33N 58°15' E 008°39'3 2.8
2016-Feb-07 06:33N 58°16' E 008°44'3 3.0
2016-Feb-07 05:33N 58°18' E 008°49'3 2.9
2016-Feb-07 04:33N 58°19' E 008°53'3 2.9
2016-Feb-07 03:33N 58°21' E 008°58'58 2.6
2016-Feb-06 05:28N 58°58' E 010°25'2 2.7
2016-Feb-06 04:33N 58°59' E 010°29'4 3.6
2016-Feb-06 03:33N 59°01' E 010°33'5 5.2
2016-Feb-06 02:33N 59°06' E 010°37'7 7.4
2016-Feb-06 01:33N 59°14' E 010°37'8 8.4
2016-Feb-06 00:33N 59°22' E 010°34'8 7.7
2016-Feb-05 23:33N 59°28' E 010°26'2 1.8
2016-Feb-05 22:33N 59°29' E 010°23'0 0.0
2016-Feb-05 21:33N 59°29' E 010°23'0 0.0
2016-Feb-05 20:33N 59°29' E 010°23'0 0.0
2016-Feb-05 19:33N 59°29' E 010°23'0 0.0
2016-Feb-05 18:33N 59°29' E 010°23'2 1.9
2016-Feb-05 17:33N 59°28' E 010°26'7 6.9
2016-Feb-05 16:33N 59°23' E 010°35'7 7.4
2016-Feb-05 15:33N 59°16' E 010°38'7 7.3
2016-Feb-05 14:33N 59°09' E 010°39'8 7.6
2016-Feb-05 13:33N 59°01' E 010°35'67 6.7
2016-Feb-05 03:33N 58°19' E 008°56'5 5.0
2016-Feb-05 02:30N 58°16' E 008°48'5 5.7
2016-Feb-05 01:33N 58°12' E 008°40'6 5.8
2016-Feb-05 00:33N 58°09' E 008°31'6 6.4
2016-Feb-04 23:33N 58°05' E 008°22'41 6.8
2016-Feb-04 17:33N 57°56' E 007°07'7 7.4
2016-Feb-04 16:33N 57°59' E 006°54'8 7.8
2016-Feb-04 15:33N 58°02' E 006°40'8 7.7
2016-Feb-04 14:33N 58°06' E 006°28'7 7.2
2016-Feb-04 13:33N 58°10' E 006°18'7 7.1
2016-Feb-04 12:33N 58°15' E 006°07'10 8.3
2016-Feb-04 11:23N 58°22' E 005°54'6 7.7
2016-Feb-04 10:33N 58°26' E 005°45'8 7.8
2016-Feb-04 09:33N 58°32' E 005°36'7 7.2
2016-Feb-04 08:33N 58°39' E 005°30'8 7.6
2016-Feb-04 07:33N 58°46' E 005°25'7 6.7
2016-Feb-04 06:33N 58°52' E 005°31'8 7.9
2016-Feb-04 05:33N 58°60' E 005°33'7 7.3
2016-Feb-04 04:33N 59°07' E 005°28'7 6.6
2016-Feb-04 03:33N 59°12' E 005°20'24 5.8
2016-Feb-03 23:30N 59°36' E 005°16'8 8.4
2016-Feb-03 22:33N 59°42' E 005°26'8 7.7
2016-Feb-03 21:32N 59°49' E 005°33'  
2016-Jan-31 22:33N 59°56' E 005°29'5 4.8
2016-Jan-31 21:33N 59°51' E 005°33'5 5.0
2016-Jan-31 20:33N 59°46' E 005°33'5 5.5
2016-Jan-31 19:33N 59°42' E 005°26'5 5.4
2016-Jan-31 18:33N 59°38' E 005°19'7 5.5
2016-Jan-31 17:20N 59°32' E 005°13'17 6.1
2016-Jan-31 14:28N 59°15' E 005°21'6 6.7
2016-Jan-31 13:33N 59°11' E 005°31'6 6.1
2016-Jan-31 12:31N 59°09' E 005°42'7 7.0
2016-Jan-31 11:33N 59°04' E 005°51'7 7.2
2016-Jan-31 10:33N 58°58' E 005°57'6 0.4
2016-Jan-30 20:30N 58°53' E 006°05'8 8.2
2016-Jan-30 19:33N 58°59' E 005°54'7 7.0
2016-Jan-30 18:33N 59°06' E 005°52'7 6.0
2016-Jan-30 17:24N 59°12' E 005°48'7 8.1
2016-Jan-30 16:33N 59°15' E 005°36'8 7.7
2016-Jan-30 15:32N 59°16' E 005°21'15 6.9
2016-Jan-30 13:18N 59°31' E 005°12'5 4.5
2016-Jan-30 12:10N 59°36' E 005°16'4 6.9
2016-Jan-30 11:32N 59°39' E 005°20'7 6.7
2016-Jan-30 10:33N 59°44' E 005°29'7 7.0
2016-Jan-30 09:33N 59°51' E 005°33'  

Dump ship's entire track history